sensor_id;sensor_type;location;lat;lon;timestamp;P1;durP1;ratioP1;P2;durP2;ratioP2
4023;SDS011;2026;51.002;13.668;2022-11-20T00:01:45;26.57;;;13.20;;
4023;SDS011;2026;51.002;13.668;2022-11-20T00:06:48;21.03;;;11.50;;
4023;SDS011;2026;51.002;13.668;2022-11-20T00:11:52;21.33;;;11.70;;
4023;SDS011;2026;51.002;13.668;2022-11-20T00:16:55;27.63;;;13.73;;
4023;SDS011;2026;51.002;13.668;2022-11-20T00:21:58;26.30;;;12.37;;
4023;SDS011;2026;51.002;13.668;2022-11-20T00:27:02;24.93;;;11.83;;
4023;SDS011;2026;51.002;13.668;2022-11-20T00:32:05;25.50;;;12.10;;
4023;SDS011;2026;51.002;13.668;2022-11-20T00:37:08;24.53;;;10.63;;
4023;SDS011;2026;51.002;13.668;2022-11-20T00:42:12;22.90;;;10.30;;
4023;SDS011;2026;51.002;13.668;2022-11-20T00:47:15;24.60;;;10.23;;
4023;SDS011;2026;51.002;13.668;2022-11-20T00:52:18;20.00;;;10.83;;
4023;SDS011;2026;51.002;13.668;2022-11-20T00:57:22;24.33;;;11.10;;
4023;SDS011;2026;51.002;13.668;2022-11-20T01:02:25;26.57;;;13.23;;
4023;SDS011;2026;51.002;13.668;2022-11-20T01:07:28;33.63;;;13.73;;
4023;SDS011;2026;51.002;13.668;2022-11-20T01:12:32;25.83;;;12.97;;
4023;SDS011;2026;51.002;13.668;2022-11-20T01:17:35;21.97;;;12.10;;
4023;SDS011;2026;51.002;13.668;2022-11-20T01:22:38;29.40;;;13.70;;
4023;SDS011;2026;51.002;13.668;2022-11-20T01:27:43;41.67;;;16.60;;
4023;SDS011;2026;51.002;13.668;2022-11-20T01:32:46;45.50;;;20.40;;
4023;SDS011;2026;51.002;13.668;2022-11-20T01:37:49;45.17;;;20.87;;
4023;SDS011;2026;51.002;13.668;2022-11-20T01:42:55;32.97;;;15.57;;
4023;SDS011;2026;51.002;13.668;2022-11-20T01:48:23;20.97;;;11.43;;
4023;SDS011;2026;51.002;13.668;2022-11-20T01:53:30;25.80;;;12.90;;
4023;SDS011;2026;51.002;13.668;2022-11-20T01:58:38;23.57;;;13.03;;
4023;SDS011;2026;51.002;13.668;2022-11-20T02:03:47;21.73;;;10.67;;
4023;SDS011;2026;51.002;13.668;2022-11-20T02:08:50;24.13;;;11.97;;
4023;SDS011;2026;51.002;13.668;2022-11-20T02:13:56;18.80;;;10.00;;
4023;SDS011;2026;51.002;13.668;2022-11-20T02:19:00;19.40;;;9.80;;
4023;SDS011;2026;51.002;13.668;2022-11-20T02:24:11;23.00;;;10.87;;
4023;SDS011;2026;51.002;13.668;2022-11-20T02:29:16;24.20;;;10.27;;
4023;SDS011;2026;51.002;13.668;2022-11-20T02:34:25;24.17;;;10.53;;
4023;SDS011;2026;51.002;13.668;2022-11-20T02:39:30;21.90;;;10.93;;
4023;SDS011;2026;51.002;13.668;2022-11-20T02:44:33;21.90;;;10.80;;
4023;SDS011;2026;51.002;13.668;2022-11-20T02:49:36;19.33;;;10.40;;
4023;SDS011;2026;51.002;13.668;2022-11-20T02:54:40;30.87;;;10.40;;
4023;SDS011;2026;51.002;13.668;2022-11-20T02:59:43;24.10;;;11.70;;
4023;SDS011;2026;51.002;13.668;2022-11-20T03:04:46;23.27;;;11.40;;
4023;SDS011;2026;51.002;13.668;2022-11-20T03:09:51;18.83;;;10.50;;
4023;SDS011;2026;51.002;13.668;2022-11-20T03:14:54;22.87;;;11.03;;
4023;SDS011;2026;51.002;13.668;2022-11-20T03:19:57;19.40;;;10.73;;
4023;SDS011;2026;51.002;13.668;2022-11-20T03:25:01;19.20;;;10.90;;
4023;SDS011;2026;51.002;13.668;2022-11-20T03:30:04;17.67;;;8.37;;
4023;SDS011;2026;51.002;13.668;2022-11-20T03:35:08;20.10;;;9.80;;
4023;SDS011;2026;51.002;13.668;2022-11-20T03:40:13;19.57;;;9.90;;
4023;SDS011;2026;51.002;13.668;2022-11-20T03:45:16;18.33;;;9.23;;
4023;SDS011;2026;51.002;13.668;2022-11-20T03:50:20;28.20;;;12.50;;
4023;SDS011;2026;51.002;13.668;2022-11-20T03:55:24;31.30;;;14.10;;
4023;SDS011;2026;51.002;13.668;2022-11-20T04:00:27;25.07;;;12.10;;
4023;SDS011;2026;51.002;13.668;2022-11-20T04:05:30;19.60;;;10.13;;
4023;SDS011;2026;51.002;13.668;2022-11-20T04:10:36;16.50;;;7.77;;
4023;SDS011;2026;51.002;13.668;2022-11-20T04:15:39;21.80;;;9.93;;
4023;SDS011;2026;51.002;13.668;2022-11-20T04:20:42;26.87;;;12.00;;
4023;SDS011;2026;51.002;13.668;2022-11-20T04:25:46;19.50;;;9.47;;
4023;SDS011;2026;51.002;13.668;2022-11-20T04:30:49;25.30;;;11.33;;
4023;SDS011;2026;51.002;13.668;2022-11-20T04:35:52;26.50;;;11.70;;
4023;SDS011;2026;51.002;13.668;2022-11-20T04:40:57;21.20;;;11.63;;
4023;SDS011;2026;51.002;13.668;2022-11-20T04:46:01;20.03;;;9.50;;
4023;SDS011;2026;51.002;13.668;2022-11-20T04:51:04;25.63;;;9.57;;
4023;SDS011;2026;51.002;13.668;2022-11-20T04:56:10;18.53;;;8.33;;
4023;SDS011;2026;51.002;13.668;2022-11-20T05:01:15;19.90;;;8.93;;
4023;SDS011;2026;51.002;13.668;2022-11-20T05:06:21;18.37;;;8.53;;
4023;SDS011;2026;51.002;13.668;2022-11-20T05:11:26;20.23;;;8.90;;
4023;SDS011;2026;51.002;13.668;2022-11-20T05:16:30;19.10;;;8.93;;
4023;SDS011;2026;51.002;13.668;2022-11-20T05:21:33;20.43;;;7.40;;
4023;SDS011;2026;51.002;13.668;2022-11-20T05:26:37;17.57;;;7.90;;
4023;SDS011;2026;51.002;13.668;2022-11-20T05:31:40;14.00;;;7.57;;
4023;SDS011;2026;51.002;13.668;2022-11-20T05:36:43;20.17;;;7.60;;
4023;SDS011;2026;51.002;13.668;2022-11-20T05:41:47;14.60;;;8.10;;
4023;SDS011;2026;51.002;13.668;2022-11-20T05:47:10;19.30;;;8.40;;
4023;SDS011;2026;51.002;13.668;2022-11-20T05:52:13;13.33;;;7.30;;
4023;SDS011;2026;51.002;13.668;2022-11-20T05:57:18;16.30;;;7.40;;
4023;SDS011;2026;51.002;13.668;2022-11-20T06:02:21;15.17;;;7.53;;
4023;SDS011;2026;51.002;13.668;2022-11-20T06:07:23;13.00;;;7.00;;
4023;SDS011;2026;51.002;13.668;2022-11-20T06:12:28;20.00;;;6.47;;
4023;SDS011;2026;51.002;13.668;2022-11-20T06:17:31;13.33;;;6.90;;
4023;SDS011;2026;51.002;13.668;2022-11-20T06:22:34;15.83;;;8.00;;
4023;SDS011;2026;51.002;13.668;2022-11-20T06:27:38;18.60;;;7.67;;
4023;SDS011;2026;51.002;13.668;2022-11-20T06:32:41;18.37;;;8.37;;
4023;SDS011;2026;51.002;13.668;2022-11-20T06:37:44;18.10;;;9.00;;
4023;SDS011;2026;51.002;13.668;2022-11-20T06:42:48;18.67;;;8.53;;
4023;SDS011;2026;51.002;13.668;2022-11-20T06:47:51;18.30;;;9.30;;
4023;SDS011;2026;51.002;13.668;2022-11-20T06:52:54;17.43;;;8.90;;
4023;SDS011;2026;51.002;13.668;2022-11-20T06:57:58;19.57;;;10.13;;
4023;SDS011;2026;51.002;13.668;2022-11-20T07:03:02;20.27;;;10.77;;
4023;SDS011;2026;51.002;13.668;2022-11-20T07:08:05;16.80;;;10.10;;
4023;SDS011;2026;51.002;13.668;2022-11-20T07:13:10;22.50;;;9.83;;
4023;SDS011;2026;51.002;13.668;2022-11-20T07:18:12;23.47;;;9.00;;
4023;SDS011;2026;51.002;13.668;2022-11-20T07:23:15;17.53;;;9.07;;
4023;SDS011;2026;51.002;13.668;2022-11-20T07:28:19;16.73;;;8.60;;
4023;SDS011;2026;51.002;13.668;2022-11-20T07:33:22;20.17;;;10.20;;
4023;SDS011;2026;51.002;13.668;2022-11-20T07:38:25;22.30;;;11.47;;
4023;SDS011;2026;51.002;13.668;2022-11-20T07:43:30;32.00;;;15.93;;
4023;SDS011;2026;51.002;13.668;2022-11-20T07:48:40;32.70;;;15.37;;
4023;SDS011;2026;51.002;13.668;2022-11-20T07:53:43;30.37;;;15.60;;
4023;SDS011;2026;51.002;13.668;2022-11-20T07:58:47;26.40;;;14.30;;
4023;SDS011;2026;51.002;13.668;2022-11-20T08:03:50;25.23;;;13.40;;
4023;SDS011;2026;51.002;13.668;2022-11-20T08:08:53;29.37;;;14.80;;
4023;SDS011;2026;51.002;13.668;2022-11-20T08:13:57;30.10;;;14.30;;
4023;SDS011;2026;51.002;13.668;2022-11-20T08:19:16;39.27;;;17.87;;
4023;SDS011;2026;51.002;13.668;2022-11-20T08:24:20;48.30;;;21.97;;
4023;SDS011;2026;51.002;13.668;2022-11-20T08:29:25;52.77;;;22.90;;
4023;SDS011;2026;51.002;13.668;2022-11-20T08:34:28;32.83;;;16.67;;
4023;SDS011;2026;51.002;13.668;2022-11-20T08:39:31;32.60;;;18.07;;
4023;SDS011;2026;51.002;13.668;2022-11-20T08:44:35;25.30;;;15.37;;
4023;SDS011;2026;51.002;13.668;2022-11-20T08:49:38;32.20;;;17.07;;
4023;SDS011;2026;51.002;13.668;2022-11-20T08:54:41;21.33;;;14.90;;
4023;SDS011;2026;51.002;13.668;2022-11-20T08:59:45;24.60;;;12.80;;
4023;SDS011;2026;51.002;13.668;2022-11-20T09:05:07;20.63;;;10.80;;
4023;SDS011;2026;51.002;13.668;2022-11-20T09:10:10;18.33;;;10.70;;
4023;SDS011;2026;51.002;13.668;2022-11-20T09:15:30;22.33;;;11.43;;
4023;SDS011;2026;51.002;13.668;2022-11-20T09:20:33;24.60;;;13.10;;
4023;SDS011;2026;51.002;13.668;2022-11-20T09:25:37;22.57;;;12.00;;
4023;SDS011;2026;51.002;13.668;2022-11-20T09:30:41;50.93;;;23.63;;
4023;SDS011;2026;51.002;13.668;2022-11-20T09:35:44;42.60;;;20.57;;
4023;SDS011;2026;51.002;13.668;2022-11-20T09:40:51;27.17;;;14.87;;
4023;SDS011;2026;51.002;13.668;2022-11-20T09:46:04;31.57;;;16.77;;
4023;SDS011;2026;51.002;13.668;2022-11-20T09:51:13;42.93;;;25.47;;
4023;SDS011;2026;51.002;13.668;2022-11-20T09:56:26;95.10;;;43.37;;
4023;SDS011;2026;51.002;13.668;2022-11-20T10:01:32;25.20;;;14.30;;
4023;SDS011;2026;51.002;13.668;2022-11-20T10:06:40;24.47;;;13.53;;
4023;SDS011;2026;51.002;13.668;2022-11-20T10:12:12;25.07;;;13.60;;
4023;SDS011;2026;51.002;13.668;2022-11-20T10:17:26;22.83;;;13.67;;
4023;SDS011;2026;51.002;13.668;2022-11-20T10:22:53;34.47;;;16.47;;
4023;SDS011;2026;51.002;13.668;2022-11-20T10:28:12;24.93;;;11.93;;
4023;SDS011;2026;51.002;13.668;2022-11-20T10:33:28;28.37;;;14.03;;
4023;SDS011;2026;51.002;13.668;2022-11-20T10:38:56;20.10;;;10.50;;
4023;SDS011;2026;51.002;13.668;2022-11-20T10:44:09;14.60;;;8.73;;
4023;SDS011;2026;51.002;13.668;2022-11-20T10:49:18;12.40;;;7.13;;
4023;SDS011;2026;51.002;13.668;2022-11-20T10:54:25;11.70;;;6.93;;
4023;SDS011;2026;51.002;13.668;2022-11-20T10:59:50;11.43;;;6.50;;
4023;SDS011;2026;51.002;13.668;2022-11-20T11:05:12;11.97;;;5.70;;
4023;SDS011;2026;51.002;13.668;2022-11-20T11:10:26;10.30;;;5.60;;
4023;SDS011;2026;51.002;13.668;2022-11-20T11:15:37;9.67;;;6.30;;
4023;SDS011;2026;51.002;13.668;2022-11-20T11:20:49;10.47;;;6.13;;
4023;SDS011;2026;51.002;13.668;2022-11-20T11:25:56;11.07;;;5.50;;
4023;SDS011;2026;51.002;13.668;2022-11-20T11:31:00;8.80;;;5.47;;
4023;SDS011;2026;51.002;13.668;2022-11-20T11:36:15;11.20;;;5.73;;
4023;SDS011;2026;51.002;13.668;2022-11-20T11:41:20;12.27;;;6.40;;
4023;SDS011;2026;51.002;13.668;2022-11-20T11:46:27;10.77;;;6.60;;
4023;SDS011;2026;51.002;13.668;2022-11-20T11:51:36;13.37;;;7.60;;
4023;SDS011;2026;51.002;13.668;2022-11-20T11:56:48;11.17;;;6.53;;
4023;SDS011;2026;51.002;13.668;2022-11-20T12:01:54;14.27;;;7.33;;
4023;SDS011;2026;51.002;13.668;2022-11-20T12:07:03;14.20;;;8.20;;
4023;SDS011;2026;51.002;13.668;2022-11-20T12:12:35;15.83;;;8.67;;
4023;SDS011;2026;51.002;13.668;2022-11-20T12:17:42;13.67;;;7.57;;
4023;SDS011;2026;51.002;13.668;2022-11-20T12:22:47;16.80;;;7.90;;
4023;SDS011;2026;51.002;13.668;2022-11-20T12:33:33;23.07;;;10.67;;
4023;SDS011;2026;51.002;13.668;2022-11-20T12:39:03;15.40;;;7.70;;
4023;SDS011;2026;51.002;13.668;2022-11-20T12:44:18;15.97;;;8.30;;
4023;SDS011;2026;51.002;13.668;2022-11-20T12:49:48;15.97;;;8.37;;
4023;SDS011;2026;51.002;13.668;2022-11-20T12:55:11;14.87;;;8.10;;
4023;SDS011;2026;51.002;13.668;2022-11-20T13:00:19;16.30;;;8.67;;
4023;SDS011;2026;51.002;13.668;2022-11-20T13:05:24;15.13;;;8.80;;
4023;SDS011;2026;51.002;13.668;2022-11-20T13:10:37;16.83;;;8.63;;
4023;SDS011;2026;51.002;13.668;2022-11-20T13:15:48;12.70;;;7.60;;
4023;SDS011;2026;51.002;13.668;2022-11-20T13:20:56;16.33;;;10.77;;
4023;SDS011;2026;51.002;13.668;2022-11-20T13:26:05;12.50;;;6.93;;
4023;SDS011;2026;51.002;13.668;2022-11-20T13:31:25;13.10;;;7.50;;
4023;SDS011;2026;51.002;13.668;2022-11-20T13:36:32;10.07;;;5.63;;
4023;SDS011;2026;51.002;13.668;2022-11-20T13:41:39;11.50;;;6.73;;
4023;SDS011;2026;51.002;13.668;2022-11-20T13:46:43;11.57;;;6.30;;
4023;SDS011;2026;51.002;13.668;2022-11-20T13:51:48;14.13;;;7.47;;
4023;SDS011;2026;51.002;13.668;2022-11-20T13:57:01;14.10;;;6.87;;
4023;SDS011;2026;51.002;13.668;2022-11-20T14:02:15;11.93;;;7.23;;
4023;SDS011;2026;51.002;13.668;2022-11-20T14:07:21;10.73;;;5.90;;
4023;SDS011;2026;51.002;13.668;2022-11-20T14:12:30;13.90;;;7.47;;
4023;SDS011;2026;51.002;13.668;2022-11-20T14:17:35;14.60;;;7.40;;
4023;SDS011;2026;51.002;13.668;2022-11-20T14:22:47;12.80;;;7.20;;
4023;SDS011;2026;51.002;13.668;2022-11-20T14:27:53;14.00;;;8.27;;
4023;SDS011;2026;51.002;13.668;2022-11-20T14:33:01;15.77;;;7.97;;
4023;SDS011;2026;51.002;13.668;2022-11-20T14:38:08;12.60;;;6.77;;
4023;SDS011;2026;51.002;13.668;2022-11-20T14:43:18;12.80;;;6.80;;
4023;SDS011;2026;51.002;13.668;2022-11-20T14:48:24;13.33;;;7.10;;
4023;SDS011;2026;51.002;13.668;2022-11-20T14:53:32;13.20;;;7.50;;
4023;SDS011;2026;51.002;13.668;2022-11-20T14:58:37;16.07;;;8.33;;
4023;SDS011;2026;51.002;13.668;2022-11-20T15:03:40;17.10;;;8.73;;
4023;SDS011;2026;51.002;13.668;2022-11-20T15:08:50;16.03;;;8.60;;
4023;SDS011;2026;51.002;13.668;2022-11-20T15:13:54;15.30;;;8.03;;
4023;SDS011;2026;51.002;13.668;2022-11-20T15:18:58;14.10;;;7.70;;
4023;SDS011;2026;51.002;13.668;2022-11-20T15:24:02;13.53;;;7.90;;
4023;SDS011;2026;51.002;13.668;2022-11-20T15:29:12;14.13;;;7.83;;
4023;SDS011;2026;51.002;13.668;2022-11-20T15:34:20;16.07;;;9.47;;
4023;SDS011;2026;51.002;13.668;2022-11-20T15:39:23;17.57;;;10.37;;
4023;SDS011;2026;51.002;13.668;2022-11-20T15:44:28;14.80;;;8.30;;
4023;SDS011;2026;51.002;13.668;2022-11-20T15:49:31;13.73;;;8.00;;
4023;SDS011;2026;51.002;13.668;2022-11-20T15:54:34;16.83;;;8.10;;
4023;SDS011;2026;51.002;13.668;2022-11-20T15:59:38;16.53;;;8.90;;
4023;SDS011;2026;51.002;13.668;2022-11-20T16:04:43;15.97;;;9.07;;
4023;SDS011;2026;51.002;13.668;2022-11-20T16:09:46;15.47;;;8.83;;
4023;SDS011;2026;51.002;13.668;2022-11-20T16:14:50;15.17;;;8.73;;
4023;SDS011;2026;51.002;13.668;2022-11-20T16:20:15;21.13;;;11.70;;
4023;SDS011;2026;51.002;13.668;2022-11-20T16:25:18;18.50;;;10.70;;
4023;SDS011;2026;51.002;13.668;2022-11-20T16:30:23;20.23;;;11.63;;
4023;SDS011;2026;51.002;13.668;2022-11-20T16:35:26;34.63;;;16.20;;
4023;SDS011;2026;51.002;13.668;2022-11-20T16:40:30;23.13;;;13.30;;
4023;SDS011;2026;51.002;13.668;2022-11-20T16:45:35;22.57;;;13.03;;
4023;SDS011;2026;51.002;13.668;2022-11-20T16:50:47;29.20;;;14.43;;
4023;SDS011;2026;51.002;13.668;2022-11-20T16:55:51;22.27;;;11.97;;
4023;SDS011;2026;51.002;13.668;2022-11-20T17:00:56;23.03;;;12.43;;
4023;SDS011;2026;51.002;13.668;2022-11-20T17:05:59;40.50;;;26.47;;
4023;SDS011;2026;51.002;13.668;2022-11-20T17:11:03;25.90;;;14.90;;
4023;SDS011;2026;51.002;13.668;2022-11-20T17:16:09;17.83;;;11.03;;
4023;SDS011;2026;51.002;13.668;2022-11-20T17:21:15;22.27;;;12.10;;
4023;SDS011;2026;51.002;13.668;2022-11-20T17:26:20;22.63;;;13.13;;
4023;SDS011;2026;51.002;13.668;2022-11-20T17:31:26;30.03;;;17.40;;
4023;SDS011;2026;51.002;13.668;2022-11-20T17:36:31;28.20;;;17.17;;
4023;SDS011;2026;51.002;13.668;2022-11-20T17:41:34;21.70;;;12.63;;
4023;SDS011;2026;51.002;13.668;2022-11-20T17:46:39;22.30;;;13.63;;
4023;SDS011;2026;51.002;13.668;2022-11-20T17:51:42;19.03;;;9.27;;
4023;SDS011;2026;51.002;13.668;2022-11-20T17:56:45;19.43;;;9.60;;
4023;SDS011;2026;51.002;13.668;2022-11-20T18:02:06;26.23;;;15.13;;
4023;SDS011;2026;51.002;13.668;2022-11-20T18:07:11;25.50;;;15.70;;
4023;SDS011;2026;51.002;13.668;2022-11-20T18:12:14;24.33;;;15.33;;
4023;SDS011;2026;51.002;13.668;2022-11-20T18:17:18;18.13;;;10.40;;
4023;SDS011;2026;51.002;13.668;2022-11-20T18:22:21;15.90;;;9.67;;
4023;SDS011;2026;51.002;13.668;2022-11-20T18:27:24;15.23;;;8.60;;
4023;SDS011;2026;51.002;13.668;2022-11-20T18:32:28;27.20;;;15.87;;
4023;SDS011;2026;51.002;13.668;2022-11-20T18:37:31;25.77;;;15.27;;
4023;SDS011;2026;51.002;13.668;2022-11-20T18:42:35;24.20;;;11.63;;
4023;SDS011;2026;51.002;13.668;2022-11-20T18:47:57;25.13;;;11.80;;
4023;SDS011;2026;51.002;13.668;2022-11-20T18:53:00;23.20;;;10.90;;
4023;SDS011;2026;51.002;13.668;2022-11-20T18:58:03;19.17;;;11.70;;
4023;SDS011;2026;51.002;13.668;2022-11-20T19:03:07;21.57;;;15.07;;
4023;SDS011;2026;51.002;13.668;2022-11-20T19:08:10;17.17;;;10.20;;
4023;SDS011;2026;51.002;13.668;2022-11-20T19:13:13;16.57;;;9.70;;
4023;SDS011;2026;51.002;13.668;2022-11-20T19:18:18;15.63;;;8.60;;
4023;SDS011;2026;51.002;13.668;2022-11-20T19:23:21;14.80;;;8.67;;
4023;SDS011;2026;51.002;13.668;2022-11-20T19:28:24;17.73;;;9.90;;
4023;SDS011;2026;51.002;13.668;2022-11-20T19:33:28;17.00;;;8.80;;
4023;SDS011;2026;51.002;13.668;2022-11-20T19:38:32;17.43;;;10.10;;
4023;SDS011;2026;51.002;13.668;2022-11-20T19:43:35;20.70;;;10.67;;
4023;SDS011;2026;51.002;13.668;2022-11-20T19:48:39;21.93;;;11.50;;
4023;SDS011;2026;51.002;13.668;2022-11-20T19:53:42;16.53;;;9.00;;
4023;SDS011;2026;51.002;13.668;2022-11-20T19:58:46;19.10;;;10.63;;
4023;SDS011;2026;51.002;13.668;2022-11-20T20:03:50;20.43;;;10.50;;
4023;SDS011;2026;51.002;13.668;2022-11-20T20:08:54;25.07;;;11.80;;
4023;SDS011;2026;51.002;13.668;2022-11-20T20:13:59;19.03;;;10.13;;
4023;SDS011;2026;51.002;13.668;2022-11-20T20:19:03;18.33;;;10.53;;
4023;SDS011;2026;51.002;13.668;2022-11-20T20:24:07;33.80;;;21.00;;
4023;SDS011;2026;51.002;13.668;2022-11-20T20:29:12;32.63;;;18.70;;
4023;SDS011;2026;51.002;13.668;2022-11-20T20:34:16;28.37;;;15.40;;
4023;SDS011;2026;51.002;13.668;2022-11-20T20:39:19;27.90;;;14.53;;
4023;SDS011;2026;51.002;13.668;2022-11-20T20:44:23;30.43;;;15.53;;
4023;SDS011;2026;51.002;13.668;2022-11-20T20:49:45;30.13;;;17.60;;
4023;SDS011;2026;51.002;13.668;2022-11-20T20:54:48;30.20;;;15.67;;
4023;SDS011;2026;51.002;13.668;2022-11-20T20:59:50;32.67;;;15.97;;
4023;SDS011;2026;51.002;13.668;2022-11-20T21:04:55;29.17;;;16.77;;
4023;SDS011;2026;51.002;13.668;2022-11-20T21:09:58;28.43;;;15.83;;
4023;SDS011;2026;51.002;13.668;2022-11-20T21:15:01;26.47;;;14.90;;
4023;SDS011;2026;51.002;13.668;2022-11-20T21:20:06;33.33;;;17.50;;
4023;SDS011;2026;51.002;13.668;2022-11-20T21:25:30;31.40;;;16.60;;
4023;SDS011;2026;51.002;13.668;2022-11-20T21:30:33;29.37;;;17.30;;
4023;SDS011;2026;51.002;13.668;2022-11-20T21:35:37;31.53;;;17.30;;
4023;SDS011;2026;51.002;13.668;2022-11-20T21:40:41;28.70;;;16.90;;
4023;SDS011;2026;51.002;13.668;2022-11-20T21:45:44;28.07;;;14.33;;
4023;SDS011;2026;51.002;13.668;2022-11-20T21:50:48;28.70;;;14.27;;
4023;SDS011;2026;51.002;13.668;2022-11-20T21:55:52;27.13;;;15.10;;
4023;SDS011;2026;51.002;13.668;2022-11-20T22:00:56;27.77;;;15.30;;
4023;SDS011;2026;51.002;13.668;2022-11-20T22:06:00;30.60;;;15.70;;
4023;SDS011;2026;51.002;13.668;2022-11-20T22:11:05;38.50;;;19.13;;
4023;SDS011;2026;51.002;13.668;2022-11-20T22:16:10;34.70;;;18.70;;
4023;SDS011;2026;51.002;13.668;2022-11-20T22:21:15;32.70;;;17.73;;
4023;SDS011;2026;51.002;13.668;2022-11-20T22:26:20;29.37;;;16.23;;
4023;SDS011;2026;51.002;13.668;2022-11-20T22:31:24;28.93;;;14.97;;
4023;SDS011;2026;51.002;13.668;2022-11-20T22:36:30;34.00;;;16.57;;
4023;SDS011;2026;51.002;13.668;2022-11-20T22:41:33;34.23;;;19.63;;
4023;SDS011;2026;51.002;13.668;2022-11-20T22:46:36;36.17;;;19.77;;
4023;SDS011;2026;51.002;13.668;2022-11-20T22:51:41;31.47;;;18.67;;
4023;SDS011;2026;51.002;13.668;2022-11-20T22:56:44;35.77;;;18.37;;
4023;SDS011;2026;51.002;13.668;2022-11-20T23:01:46;33.00;;;18.53;;
4023;SDS011;2026;51.002;13.668;2022-11-20T23:06:51;34.80;;;20.07;;
4023;SDS011;2026;51.002;13.668;2022-11-20T23:11:54;34.13;;;20.93;;
4023;SDS011;2026;51.002;13.668;2022-11-20T23:16:57;35.50;;;19.87;;
4023;SDS011;2026;51.002;13.668;2022-11-20T23:22:01;32.53;;;17.73;;
4023;SDS011;2026;51.002;13.668;2022-11-20T23:27:04;34.77;;;19.07;;
4023;SDS011;2026;51.002;13.668;2022-11-20T23:32:07;38.23;;;19.77;;
4023;SDS011;2026;51.002;13.668;2022-11-20T23:37:11;37.80;;;21.00;;
4023;SDS011;2026;51.002;13.668;2022-11-20T23:42:14;34.13;;;19.00;;
4023;SDS011;2026;51.002;13.668;2022-11-20T23:47:17;33.00;;;19.43;;
4023;SDS011;2026;51.002;13.668;2022-11-20T23:52:22;32.90;;;17.90;;
4023;SDS011;2026;51.002;13.668;2022-11-20T23:57:26;35.47;;;19.80;;
